Blankenberge, Belgium
Current Conditions -  °F | °C
As of 7:50 AM on Monday 24 Nov 2014 (Local Time) from EBOS Reporting Station
Few Clouds Few Clouds  
Wind Chill: 42°   Ceiling: Unl
Heat Index: 46°   Visibility: 6mi
Dew Point: 37°   Wind: 9mph
Humidity: 71%   Direction: 350°N
Pressure: 30.24"   Gusts: NA
Location:  51.31°N, 3.13°E
Report Text: EBOS 240650Z 35008KT 9999 FEW020 08/03 Q1024 NOSIG
Loading
Personal Weather Stations






























Interactive Weather Map New forecast layout! Learn more

10-Day Weather Forecast

Advertisements
Track Severe Weather on mobile